createdAt,value
2023-04-20T00:00:11.080Z,8.93
2023-04-20T00:02:42.022Z,10.15
2023-04-20T00:05:09.789Z,7.35
2023-04-20T00:07:38.649Z,6.18
2023-04-20T00:10:05.995Z,9.95
2023-04-20T00:12:33.073Z,8.32
2023-04-20T00:15:00.333Z,8.10
2023-04-20T00:17:27.575Z,7.65
2023-04-20T00:19:54.749Z,8.65
2023-04-20T00:22:21.867Z,8.55
2023-04-20T00:24:48.989Z,11.02
2023-04-20T00:27:16.169Z,7.22
2023-04-20T00:29:43.249Z,6.80
2023-04-20T00:32:10.309Z,6.85
2023-04-20T00:34:37.433Z,7.13
2023-04-20T00:37:04.687Z,6.53
2023-04-20T00:39:31.825Z,7.25
2023-04-20T00:42:06.492Z,8.82
2023-04-20T00:44:33.775Z,5.85
2023-04-20T00:47:01.577Z,6.10
2023-04-20T00:49:30.033Z,7.00
2023-04-20T00:51:58.613Z,6.03
2023-04-20T00:54:27.231Z,7.78
2023-04-20T00:56:55.162Z,6.90
2023-04-20T00:59:22.757Z,6.78
2023-04-20T01:01:50.042Z,5.85
2023-04-20T01:04:17.994Z,7.00
2023-04-20T01:06:45.251Z,8.68
2023-04-20T01:09:12.507Z,5.60
2023-04-20T01:11:40.066Z,9.27
2023-04-20T01:14:07.343Z,6.22
2023-04-20T01:16:37.576Z,7.10
2023-04-20T01:19:05.225Z,6.07
2023-04-20T01:21:33.849Z,7.10
2023-04-20T01:24:01.488Z,5.47
2023-04-20T01:26:28.755Z,10.82
2023-04-20T01:28:56.155Z,9.00
2023-04-20T01:31:23.403Z,6.60
2023-04-20T01:33:51.186Z,5.47
2023-04-20T01:36:21.431Z,8.00
2023-04-20T01:38:48.708Z,6.05
2023-04-20T01:41:15.852Z,6.68
2023-04-20T01:43:43.052Z,6.57
2023-04-20T01:46:12.548Z,8.10
2023-04-20T01:48:40.458Z,5.78
2023-04-20T01:51:09.609Z,6.47
2023-04-20T01:53:36.786Z,10.00
2023-04-20T01:56:03.959Z,9.77
2023-04-20T01:58:31.581Z,12.38
2023-04-20T02:00:58.832Z,7.45
2023-04-20T02:03:28.003Z,7.47
2023-04-20T02:05:55.308Z,6.40
2023-04-20T02:08:22.737Z,10.73
2023-04-20T02:10:49.943Z,9.57
2023-04-20T02:13:17.118Z,7.75
2023-04-20T02:15:45.796Z,7.50
2023-04-20T02:18:13.222Z,6.70
2023-04-20T02:20:40.332Z,6.68
2023-04-20T02:23:07.616Z,8.93
2023-04-20T02:25:36.018Z,9.77
2023-04-20T02:28:04.790Z,6.63
2023-04-20T02:30:31.984Z,7.43
2023-04-20T02:32:59.650Z,8.27
2023-04-20T02:35:26.889Z,5.88
2023-04-20T02:37:54.030Z,6.55
2023-04-20T02:40:21.190Z,10.00
2023-04-20T02:42:48.306Z,6.72
2023-04-20T02:45:15.901Z,6.43
2023-04-20T02:47:46.766Z,5.07
2023-04-20T02:50:15.358Z,6.88
2023-04-20T02:53:02.777Z,9.88
2023-04-20T02:55:33.282Z,8.57
2023-04-20T02:58:06.008Z,7.25
2023-04-20T03:00:53.489Z,9.82
2023-04-20T03:03:21.319Z,7.38
2023-04-20T03:05:48.728Z,8.48
2023-04-20T03:08:17.365Z,7.15
2023-04-20T03:10:46.122Z,7.70
2023-04-20T03:13:19.438Z,6.03
2023-04-20T03:15:53.351Z,6.55
2023-04-20T03:18:27.552Z,6.10
2023-04-20T03:20:54.696Z,7.28
2023-04-20T03:23:22.066Z,7.03
2023-04-20T03:25:50.298Z,7.50
2023-04-20T03:28:27.291Z,8.85
2023-04-20T03:30:54.597Z,7.65
2023-04-20T03:33:21.798Z,5.90
2023-04-20T03:35:48.890Z,9.52
2023-04-20T03:38:15.948Z,9.10
2023-04-20T03:40:43.025Z,7.30
2023-04-20T03:43:11.149Z,5.60
2023-04-20T03:45:38.379Z,5.65
2023-04-20T03:48:05.770Z,5.78
2023-04-20T03:50:32.915Z,8.40
2023-04-20T03:53:00.055Z,8.35
2023-04-20T03:55:27.282Z,6.13
2023-04-20T03:58:00.028Z,8.32
2023-04-20T04:00:31.247Z,6.18
2023-04-20T04:03:06.944Z,7.60
2023-04-20T04:05:34.398Z,7.35
2023-04-20T04:08:01.908Z,6.50
2023-04-20T04:10:29.101Z,6.85
2023-04-20T04:12:56.219Z,7.43
2023-04-20T04:15:23.403Z,7.72
2023-04-20T04:17:58.441Z,8.85
2023-04-20T04:20:25.850Z,7.53
2023-04-20T04:22:53.460Z,6.93
2023-04-20T04:25:32.637Z,8.98
2023-04-20T04:28:00.487Z,8.57
2023-04-20T04:30:29.516Z,6.45
2023-04-20T04:32:57.521Z,5.90
2023-04-20T04:35:24.880Z,6.43
2023-04-20T04:37:54.047Z,9.82
2023-04-20T04:40:21.897Z,8.48
2023-04-20T04:42:53.772Z,7.43
2023-04-20T04:45:20.921Z,7.78
2023-04-20T04:47:48.087Z,5.35
2023-04-20T04:50:15.302Z,6.32
2023-04-20T04:52:42.427Z,7.60
2023-04-20T04:55:09.849Z,6.55
2023-04-20T04:57:38.630Z,6.35
2023-04-20T05:00:11.631Z,9.68
2023-04-20T05:02:39.367Z,6.05
2023-04-20T05:05:09.543Z,5.57
2023-04-20T05:07:38.282Z,8.18
2023-04-20T05:10:05.835Z,8.23
2023-04-20T05:12:32.961Z,8.02
2023-04-20T05:15:00.303Z,7.00
2023-04-20T05:17:27.562Z,7.78
2023-04-20T05:19:54.797Z,5.68
2023-04-20T05:22:21.892Z,5.70
2023-04-20T05:24:49.068Z,12.63
2023-04-20T05:27:16.252Z,6.78
2023-04-20T05:29:43.361Z,8.75
2023-04-20T05:32:10.671Z,6.88
2023-04-20T05:34:37.797Z,7.00
2023-04-20T05:37:06.055Z,7.55
2023-04-20T05:39:33.299Z,6.47
2023-04-20T05:42:00.508Z,7.10
2023-04-20T05:44:27.633Z,7.30
2023-04-20T05:46:54.704Z,10.00
2023-04-20T05:49:22.008Z,7.07
2023-04-20T05:51:49.234Z,8.57
2023-04-20T05:54:16.384Z,7.55
2023-04-20T05:56:43.591Z,7.05
2023-04-20T05:59:10.867Z,6.65
2023-04-20T06:01:38.017Z,7.47
2023-04-20T06:04:05.369Z,6.15
2023-04-20T06:06:33.217Z,5.03
2023-04-20T06:09:00.488Z,7.78
2023-04-20T06:11:27.566Z,5.55
2023-04-20T06:13:54.684Z,6.55
2023-04-20T06:16:21.856Z,6.47
2023-04-20T06:18:49.060Z,7.38
2023-04-20T06:21:17.405Z,7.88
2023-04-20T06:23:44.678Z,7.60
2023-04-20T06:26:11.961Z,6.60
2023-04-20T06:28:39.096Z,6.75
2023-04-20T06:31:06.509Z,6.28
2023-04-20T06:33:33.737Z,9.73
2023-04-20T06:36:00.967Z,7.50
2023-04-20T06:38:28.054Z,9.07
2023-04-20T06:40:57.375Z,8.55
2023-04-20T06:43:24.504Z,6.13
2023-04-20T06:45:51.571Z,6.95
2023-04-20T06:48:31.682Z,7.57
2023-04-20T06:50:59.651Z,8.10
2023-04-20T06:53:26.929Z,6.35
2023-04-20T06:55:57.350Z,7.28
2023-04-20T06:58:24.516Z,8.55
2023-04-20T07:00:51.573Z,6.25
2023-04-20T07:03:19.371Z,7.72
2023-04-20T07:05:46.900Z,7.10
2023-04-20T07:08:15.784Z,10.27
2023-04-20T07:10:43.099Z,7.90
2023-04-20T07:13:10.536Z,8.85
2023-04-20T07:15:37.714Z,7.13
2023-04-20T07:18:05.099Z,8.35
2023-04-20T07:20:32.276Z,8.32
2023-04-20T07:22:59.448Z,8.57
2023-04-20T07:25:27.239Z,9.73
2023-04-20T07:27:54.395Z,6.82
2023-04-20T07:30:21.534Z,7.55
2023-04-20T07:32:49.614Z,7.50
2023-04-20T07:35:16.904Z,7.57
2023-04-20T07:37:44.062Z,8.13
2023-04-20T07:40:11.465Z,8.98
2023-04-20T07:42:38.609Z,6.38
2023-04-20T07:45:06.285Z,6.57
2023-04-20T07:47:36.539Z,9.38
2023-04-20T07:50:07.378Z,8.02
2023-04-20T07:52:34.516Z,11.00
2023-04-20T07:55:01.691Z,7.85
2023-04-20T07:57:29.141Z,7.32
2023-04-20T07:59:56.216Z,12.35
2023-04-20T08:02:23.421Z,10.05
2023-04-20T08:04:50.775Z,7.97
2023-04-20T08:07:18.146Z,8.15
2023-04-20T08:09:45.325Z,6.90
2023-04-20T08:12:12.452Z,9.05
2023-04-20T08:14:40.486Z,8.18
2023-04-20T08:17:08.201Z,9.55
2023-04-20T08:19:35.323Z,11.73
2023-04-20T08:22:03.441Z,7.80
2023-04-20T08:24:30.818Z,6.15
2023-04-20T08:26:59.259Z,8.23
2023-04-20T08:29:26.563Z,7.95
2023-04-20T08:31:53.753Z,10.32
2023-04-20T08:34:21.469Z,8.25
2023-04-20T08:36:48.884Z,8.45
2023-04-20T08:39:19.924Z,9.32
2023-04-20T08:41:47.997Z,8.98
2023-04-20T08:44:15.500Z,7.63
2023-04-20T08:46:47.250Z,7.20
2023-04-20T08:49:16.191Z,8.52
2023-04-20T08:51:43.990Z,8.40
2023-04-20T08:54:11.801Z,7.13
2023-04-20T08:56:40.201Z,8.85
2023-04-20T08:59:10.144Z,11.63
2023-04-20T09:01:41.619Z,8.30
2023-04-20T09:04:18.068Z,9.25
2023-04-20T09:06:53.284Z,9.13
2023-04-20T09:09:21.283Z,9.07
2023-04-20T09:11:48.912Z,9.35
2023-04-20T09:14:18.157Z,8.80
2023-04-20T09:16:52.780Z,8.50
2023-04-20T09:19:24.620Z,11.23
2023-04-20T09:21:52.454Z,9.35
2023-04-20T09:24:23.867Z,6.80
2023-04-20T09:26:50.983Z,8.93
2023-04-20T09:29:19.364Z,8.00
2023-04-20T09:31:46.670Z,9.50
2023-04-20T09:34:13.891Z,8.68
2023-04-20T09:36:41.134Z,9.45
2023-04-20T09:39:11.940Z,9.00
2023-04-20T09:41:39.906Z,7.22
2023-04-20T09:44:07.997Z,10.13
2023-04-20T09:46:36.119Z,10.13
2023-04-20T09:49:07.321Z,9.60
2023-04-20T09:51:36.139Z,9.50
2023-04-20T09:54:04.222Z,7.68
2023-04-20T09:56:31.917Z,10.80
2023-04-20T09:58:59.752Z,8.10
2023-04-20T10:01:27.387Z,9.80
2023-04-20T10:03:54.811Z,10.48
2023-04-20T10:06:26.363Z,10.52
2023-04-20T10:08:53.570Z,9.98
2023-04-20T10:11:44.566Z,11.13
2023-04-20T10:16:47.131Z,9.00
2023-04-20T10:19:14.368Z,18.25
2023-04-20T10:21:48.715Z,10.65
2023-04-20T10:24:18.858Z,10.32
2023-04-20T10:26:47.590Z,8.88
2023-04-20T10:29:25.536Z,9.70
2023-04-20T10:31:53.444Z,10.82
2023-04-20T10:34:31.195Z,11.50
2023-04-20T10:37:08.172Z,9.98
2023-04-20T10:39:37.687Z,8.75
2023-04-20T10:42:05.026Z,9.38
2023-04-20T10:44:34.033Z,9.70
2023-04-20T10:47:01.238Z,9.75
2023-04-20T10:49:29.431Z,10.68
2023-04-20T10:51:56.812Z,10.68
2023-04-20T10:54:24.177Z,8.75
2023-04-20T10:56:51.984Z,9.60
2023-04-20T10:59:20.647Z,9.13
2023-04-20T11:01:48.777Z,8.65
2023-04-20T11:04:18.576Z,8.73
2023-04-20T11:06:47.953Z,9.95
2023-04-20T11:09:22.850Z,10.55
2023-04-20T11:12:03.902Z,10.23
2023-04-20T11:14:32.020Z,7.88
2023-04-20T11:16:59.404Z,8.05
2023-04-20T11:19:28.529Z,9.65
2023-04-20T11:21:55.803Z,8.55
2023-04-20T11:24:23.916Z,9.18
2023-04-20T11:26:53.097Z,6.82
2023-04-20T11:29:39.792Z,9.77
2023-04-20T11:32:10.766Z,8.82
2023-04-20T11:34:39.109Z,9.32
2023-04-20T11:37:15.927Z,7.93
2023-04-20T11:39:43.139Z,8.20
2023-04-20T11:42:11.696Z,5.70
2023-04-20T11:44:41.302Z,9.25
2023-04-20T11:47:08.498Z,10.85
2023-04-20T11:49:35.726Z,8.43
2023-04-20T11:52:03.260Z,8.23
2023-04-20T11:54:33.949Z,7.97
2023-04-20T11:57:01.180Z,10.45
2023-04-20T11:59:28.325Z,8.20
2023-04-20T12:01:55.585Z,7.88
2023-04-20T12:04:22.965Z,9.00
2023-04-20T12:06:50.594Z,7.90
2023-04-20T12:09:17.926Z,7.75
2023-04-20T12:11:45.333Z,7.47
2023-04-20T12:14:12.456Z,9.70
2023-04-20T12:16:39.581Z,6.47
2023-04-20T12:19:06.739Z,8.32
2023-04-20T12:21:34.049Z,8.88
2023-04-20T12:24:01.253Z,7.93
2023-04-20T12:26:37.375Z,7.57
2023-04-20T12:29:05.418Z,7.65
2023-04-20T12:31:32.556Z,9.43
2023-04-20T12:33:59.793Z,10.38
2023-04-20T12:36:27.941Z,7.57
2023-04-20T12:38:55.951Z,8.13
2023-04-20T12:41:23.484Z,11.60
2023-04-20T12:43:51.340Z,8.82
2023-04-20T12:46:18.616Z,8.77
2023-04-20T12:48:46.050Z,6.82
2023-04-20T12:51:13.582Z,9.30
2023-04-20T12:53:40.704Z,8.85
2023-04-20T12:56:08.018Z,9.98
2023-04-20T12:58:35.118Z,8.50
2023-04-20T13:01:02.360Z,8.05
2023-04-20T13:03:29.703Z,9.20
2023-04-20T13:05:57.020Z,8.00
2023-04-20T13:08:24.188Z,10.32
2023-04-20T13:10:51.423Z,8.90
2023-04-20T13:13:18.518Z,10.13
2023-04-20T13:15:45.645Z,9.05
2023-04-20T13:18:15.100Z,8.52
2023-04-20T13:20:42.486Z,8.38
2023-04-20T13:23:09.623Z,9.05
2023-04-20T13:25:38.650Z,8.50
2023-04-20T13:28:06.217Z,8.57
2023-04-20T13:30:33.574Z,8.70
2023-04-20T13:33:00.864Z,10.75
2023-04-20T13:35:28.100Z,8.77
2023-04-20T13:37:55.524Z,9.90
2023-04-20T13:40:22.731Z,9.07
2023-04-20T13:42:50.047Z,7.95
2023-04-20T13:45:17.363Z,9.13
2023-04-20T13:47:44.521Z,10.75
2023-04-20T13:50:11.791Z,8.85
2023-04-20T13:52:39.231Z,9.43
2023-04-20T13:55:06.557Z,9.63
2023-04-20T13:57:33.817Z,8.85
2023-04-20T14:00:02.701Z,8.13
2023-04-20T14:02:32.439Z,9.40
2023-04-20T14:04:59.937Z,8.25
2023-04-20T14:07:27.093Z,8.25
2023-04-20T14:09:56.619Z,9.57
2023-04-20T14:12:24.169Z,9.35
2023-04-20T14:14:51.625Z,12.43
2023-04-20T14:17:18.821Z,10.35
2023-04-20T14:19:46.177Z,8.80
2023-04-20T14:22:13.279Z,8.75
2023-04-20T14:24:40.729Z,9.57
2023-04-20T14:27:07.874Z,9.85
2023-04-20T14:29:35.040Z,11.07
2023-04-20T14:32:02.234Z,8.70
2023-04-20T14:34:29.318Z,9.30
2023-04-20T14:36:56.627Z,10.68
2023-04-20T14:39:23.815Z,10.68
2023-04-20T14:41:51.058Z,11.80
2023-04-20T14:44:18.509Z,9.88
2023-04-20T14:46:46.513Z,9.38
2023-04-20T14:49:13.737Z,11.27
2023-04-20T14:51:40.907Z,10.10
2023-04-20T14:54:08.123Z,9.20
2023-04-20T14:56:35.839Z,10.35
2023-04-20T14:59:03.498Z,9.80
2023-04-20T15:01:30.748Z,9.85
2023-04-20T15:03:57.998Z,8.55
2023-04-20T15:06:25.573Z,10.15
2023-04-20T15:08:56.541Z,8.57
2023-04-20T15:11:23.737Z,10.75
2023-04-20T15:13:52.066Z,9.02
2023-04-20T15:16:19.408Z,10.68
2023-04-20T15:18:46.647Z,10.50
2023-04-20T15:21:13.772Z,11.40
2023-04-20T15:23:40.989Z,11.23
2023-04-20T15:26:09.103Z,10.55
2023-04-20T15:28:36.250Z,10.48
2023-04-20T15:31:03.524Z,9.93
2023-04-20T15:33:30.876Z,9.48
2023-04-20T15:35:58.017Z,9.75
2023-04-20T15:38:25.257Z,10.25
2023-04-20T15:40:53.815Z,10.25
2023-04-20T15:43:21.002Z,9.52
2023-04-20T15:45:48.133Z,9.68
2023-04-20T15:48:15.454Z,10.73
2023-04-20T15:50:42.640Z,9.25
2023-04-20T15:53:09.759Z,9.63
2023-04-20T15:55:40.154Z,10.60
2023-04-20T15:58:07.280Z,10.32
2023-04-20T16:00:34.582Z,10.77
2023-04-20T16:03:02.102Z,12.93
2023-04-20T16:05:29.555Z,10.30
2023-04-20T16:07:56.783Z,11.27
2023-04-20T16:10:23.973Z,13.32
2023-04-20T16:12:51.361Z,10.50
2023-04-20T16:15:19.043Z,9.70
2023-04-20T16:17:46.317Z,10.88
2023-04-20T16:20:13.825Z,10.10
2023-04-20T16:22:41.048Z,9.25
2023-04-20T16:25:09.364Z,10.25
2023-04-20T16:27:36.759Z,8.73
2023-04-20T16:30:04.081Z,10.52
2023-04-20T16:32:31.593Z,10.25
2023-04-20T16:34:58.779Z,10.63
2023-04-20T16:37:26.025Z,8.63
2023-04-20T16:39:53.144Z,10.35
2023-04-20T16:42:20.354Z,9.43
2023-04-20T16:44:47.435Z,9.65
2023-04-20T16:47:14.667Z,10.15
2023-04-20T16:49:41.882Z,10.27
2023-04-20T16:52:10.580Z,9.38
2023-04-20T16:54:37.757Z,10.07
2023-04-20T16:57:04.934Z,9.80
2023-04-20T16:59:32.027Z,10.63
2023-04-20T17:01:59.217Z,10.30
2023-04-20T17:04:26.432Z,12.00
2023-04-20T17:06:53.654Z,9.98
2023-04-20T17:09:21.026Z,11.07
2023-04-20T17:11:48.562Z,10.35
2023-04-20T17:14:16.958Z,9.75
2023-04-20T17:16:44.347Z,10.93
2023-04-20T17:19:11.508Z,11.55
2023-04-20T17:21:40.409Z,12.23
2023-04-20T17:24:07.779Z,10.70
2023-04-20T17:26:34.915Z,8.75
2023-04-20T17:29:02.037Z,11.15
2023-04-20T17:31:31.207Z,11.75
2023-04-20T17:33:58.364Z,10.40
2023-04-20T17:36:25.959Z,11.57
2023-04-20T17:38:53.182Z,9.82
2023-04-20T17:41:20.618Z,9.60
2023-04-20T17:43:48.558Z,9.68
2023-04-20T17:46:15.748Z,12.60
2023-04-20T17:48:43.083Z,9.60
2023-04-20T17:51:10.234Z,9.88
2023-04-20T17:53:37.409Z,10.55
2023-04-20T17:56:06.143Z,13.07
2023-04-20T17:58:33.283Z,8.60
2023-04-20T18:01:00.851Z,8.95
2023-04-20T18:03:28.509Z,9.77
2023-04-20T18:05:55.904Z,10.60
2023-04-20T18:08:23.330Z,8.48
2023-04-20T18:10:50.676Z,9.73
2023-04-20T18:13:17.863Z,9.35
2023-04-20T18:15:45.121Z,8.77
2023-04-20T18:18:12.313Z,10.13
2023-04-20T18:20:40.385Z,9.55
2023-04-20T18:23:07.993Z,9.55
2023-04-20T18:25:35.277Z,9.52
2023-04-20T18:28:02.509Z,10.15
2023-04-20T18:30:30.286Z,10.55
2023-04-20T18:32:57.438Z,11.07
2023-04-20T18:35:24.674Z,10.50
2023-04-20T18:37:53.453Z,10.95
2023-04-20T18:40:20.640Z,10.35
2023-04-20T18:42:48.014Z,12.43
2023-04-20T18:45:15.234Z,13.57
2023-04-20T18:47:43.079Z,11.18
2023-04-20T18:50:11.579Z,12.35
2023-04-20T18:52:38.721Z,11.55
2023-04-20T18:55:06.162Z,10.55
2023-04-20T18:57:33.511Z,10.63
2023-04-20T19:00:00.720Z,11.65
2023-04-20T19:02:28.192Z,10.65
2023-04-20T19:04:55.763Z,9.88
2023-04-20T19:07:22.920Z,9.45
2023-04-20T19:09:50.157Z,10.73
2023-04-20T19:12:17.259Z,11.10
2023-04-20T19:14:44.556Z,10.80
2023-04-20T19:17:12.552Z,11.75
2023-04-20T19:19:39.746Z,11.35
2023-04-20T19:22:06.894Z,9.98
2023-04-20T19:24:34.362Z,11.23
2023-04-20T19:27:02.117Z,11.32
2023-04-20T19:29:29.550Z,11.50
2023-04-20T19:31:56.747Z,11.85
2023-04-20T19:34:23.959Z,11.07
2023-04-20T19:36:51.441Z,10.27
2023-04-20T19:39:18.675Z,10.70
2023-04-20T19:41:46.142Z,11.50
2023-04-20T19:44:14.412Z,10.52
2023-04-20T19:46:43.502Z,13.60
2023-04-20T19:49:10.724Z,10.85
2023-04-20T19:51:37.869Z,14.38
2023-04-20T19:54:05.211Z,10.68
2023-04-20T19:56:33.623Z,11.02
2023-04-20T19:59:00.880Z,11.10
2023-04-20T20:01:28.217Z,10.43
2023-04-20T20:03:55.711Z,11.82
2023-04-20T20:06:23.754Z,11.13
2023-04-20T20:08:51.571Z,10.75
2023-04-20T20:11:18.903Z,12.80
2023-04-20T20:13:46.270Z,11.05
2023-04-20T20:16:13.535Z,12.60
2023-04-20T20:18:40.749Z,12.85
2023-04-20T20:21:08.012Z,11.90
2023-04-20T20:23:35.208Z,13.32
2023-04-20T20:26:02.682Z,12.25
2023-04-20T20:28:29.917Z,12.27
2023-04-20T20:30:57.353Z,13.32
2023-04-20T20:33:24.594Z,11.85
2023-04-20T20:35:52.486Z,13.82
2023-04-20T20:38:20.858Z,13.48
2023-04-20T20:40:53.305Z,15.50
2023-04-20T20:43:21.544Z,11.70
2023-04-20T20:45:48.748Z,12.75
2023-04-20T20:48:15.904Z,12.13
2023-04-20T20:50:43.183Z,12.57
2023-04-20T20:53:10.401Z,14.55
2023-04-20T20:55:37.661Z,13.45
2023-04-20T20:58:04.908Z,13.77
2023-04-20T21:00:33.306Z,13.13
2023-04-20T21:03:00.942Z,17.63
2023-04-20T21:05:28.371Z,14.70
2023-04-20T21:07:55.577Z,14.85
2023-04-20T21:10:22.696Z,13.90
2023-04-20T21:12:49.802Z,13.48
2023-04-20T21:15:16.917Z,14.07
2023-04-20T21:17:44.070Z,13.05
2023-04-20T21:20:11.651Z,16.40
2023-04-20T21:22:38.905Z,14.75
2023-04-20T21:25:06.413Z,13.85
2023-04-20T21:27:33.651Z,15.38
2023-04-20T21:30:00.759Z,14.80
2023-04-20T21:32:27.911Z,16.98
2023-04-20T21:34:55.059Z,13.95
2023-04-20T21:37:22.239Z,15.40
2023-04-20T21:39:50.933Z,14.70
2023-04-20T21:42:18.271Z,15.13
2023-04-20T21:44:45.450Z,15.23
2023-04-20T21:47:12.695Z,14.50
2023-04-20T21:49:39.811Z,14.90
2023-04-20T21:52:06.905Z,16.73
2023-04-20T21:54:34.795Z,17.15
2023-04-20T21:57:02.059Z,18.08
2023-04-20T21:59:29.189Z,14.82
2023-04-20T22:01:56.454Z,14.30
2023-04-20T22:04:28.289Z,17.30
2023-04-20T22:06:55.545Z,13.75
2023-04-20T22:09:23.064Z,14.48
2023-04-20T22:11:50.208Z,15.20
2023-04-20T22:14:17.659Z,13.43
2023-04-20T22:16:44.808Z,17.63
2023-04-20T22:19:12.280Z,18.25
2023-04-20T22:21:39.438Z,15.85
2023-04-20T22:24:06.711Z,14.93
2023-04-20T22:26:33.865Z,15.48
2023-04-20T22:29:00.996Z,17.88
2023-04-20T22:31:28.178Z,16.67
2023-04-20T22:33:55.355Z,13.18
2023-04-20T22:36:22.528Z,17.65
2023-04-20T22:38:49.654Z,16.33
2023-04-20T22:41:17.694Z,15.98
2023-04-20T22:43:44.973Z,15.63
2023-04-20T22:46:12.195Z,16.85
2023-04-20T22:48:40.371Z,15.68
2023-04-20T22:51:07.461Z,16.35
2023-04-20T22:53:34.614Z,17.05
2023-04-20T22:56:08.453Z,17.50
2023-04-20T22:58:35.929Z,16.83
2023-04-20T23:01:03.471Z,17.52
2023-04-20T23:03:31.129Z,17.95
2023-04-20T23:05:59.079Z,19.85
2023-04-20T23:08:28.072Z,18.60
2023-04-20T23:10:55.333Z,20.88
2023-04-20T23:13:24.546Z,17.85
2023-04-20T23:15:51.874Z,16.95
2023-04-20T23:18:19.154Z,19.17
2023-04-20T23:20:46.365Z,19.65
2023-04-20T23:23:13.430Z,20.67
2023-04-20T23:25:40.572Z,16.90
2023-04-20T23:28:07.800Z,18.50
2023-04-20T23:30:35.007Z,16.83
2023-04-20T23:33:02.097Z,18.33
2023-04-20T23:35:29.257Z,21.02
2023-04-20T23:37:57.992Z,22.23
2023-04-20T23:40:25.704Z,18.33
2023-04-20T23:42:52.937Z,21.20
2023-04-20T23:45:20.344Z,17.45
2023-04-20T23:47:47.562Z,19.38
2023-04-20T23:50:14.806Z,16.48
2023-04-20T23:52:42.040Z,18.50
2023-04-20T23:55:09.568Z,19.73
2023-04-20T23:57:36.754Z,18.88
